sensor_id;sensor_type;location;lat;lon;timestamp;temperature;humidity
53422;DHT22;39319;52.944;5.928;2022-11-12T00:01:53;8.30;99.90
53422;DHT22;39319;52.944;5.928;2022-11-12T00:04:19;8.30;99.90
53422;DHT22;39319;52.944;5.928;2022-11-12T00:06:44;8.30;99.90
53422;DHT22;39319;52.944;5.928;2022-11-12T00:09:10;8.20;99.90
53422;DHT22;39319;52.944;5.928;2022-11-12T00:11:36;8.20;99.90
53422;DHT22;39319;52.944;5.928;2022-11-12T00:14:02;8.30;99.90
53422;DHT22;39319;52.944;5.928;2022-11-12T00:16:27;8.20;99.90
53422;DHT22;39319;52.944;5.928;2022-11-12T00:18:53;8.10;99.90
53422;DHT22;39319;52.944;5.928;2022-11-12T00:21:19;8.40;99.90
53422;DHT22;39319;52.944;5.928;2022-11-12T00:23:45;8.10;99.90
53422;DHT22;39319;52.944;5.928;2022-11-12T00:26:11;8.00;99.90
53422;DHT22;39319;52.944;5.928;2022-11-12T00:28:37;8.00;99.90
53422;DHT22;39319;52.944;5.928;2022-11-12T00:31:08;8.00;99.90
53422;DHT22;39319;52.944;5.928;2022-11-12T00:33:37;8.00;99.90
53422;DHT22;39319;52.944;5.928;2022-11-12T00:36:04;7.90;99.90
53422;DHT22;39319;52.944;5.928;2022-11-12T00:38:30;7.90;99.90
53422;DHT22;39319;52.944;5.928;2022-11-12T00:41:00;7.90;99.90
53422;DHT22;39319;52.944;5.928;2022-11-12T00:43:26;7.90;99.90
53422;DHT22;39319;52.944;5.928;2022-11-12T00:45:51;7.80;99.90
53422;DHT22;39319;52.944;5.928;2022-11-12T00:48:17;7.80;99.90
53422;DHT22;39319;52.944;5.928;2022-11-12T00:50:45;7.80;99.90
53422;DHT22;39319;52.944;5.928;2022-11-12T00:53:11;7.80;99.90
53422;DHT22;39319;52.944;5.928;2022-11-12T00:55:37;7.70;99.90
53422;DHT22;39319;52.944;5.928;2022-11-12T00:58:02;7.70;99.90
53422;DHT22;39319;52.944;5.928;2022-11-12T01:00:28;7.70;99.90
53422;DHT22;39319;52.944;5.928;2022-11-12T01:02:54;7.70;99.90
53422;DHT22;39319;52.944;5.928;2022-11-12T01:05:20;7.60;99.90
53422;DHT22;39319;52.944;5.928;2022-11-12T01:07:46;7.60;99.90
53422;DHT22;39319;52.944;5.928;2022-11-12T01:10:13;7.60;99.90
53422;DHT22;39319;52.944;5.928;2022-11-12T01:12:39;7.60;99.90
53422;DHT22;39319;52.944;5.928;2022-11-12T01:15:06;7.60;99.90
53422;DHT22;39319;52.944;5.928;2022-11-12T01:17:32;7.60;99.90
53422;DHT22;39319;52.944;5.928;2022-11-12T01:19:58;7.50;99.90
53422;DHT22;39319;52.944;5.928;2022-11-12T01:22:24;7.50;99.90
53422;DHT22;39319;52.944;5.928;2022-11-12T01:24:50;7.50;99.90
53422;DHT22;39319;52.944;5.928;2022-11-12T01:27:15;7.50;99.90
53422;DHT22;39319;52.944;5.928;2022-11-12T01:29:41;7.50;99.90
53422;DHT22;39319;52.944;5.928;2022-11-12T01:32:07;7.50;99.90
53422;DHT22;39319;52.944;5.928;2022-11-12T01:34:33;7.60;99.90
53422;DHT22;39319;52.944;5.928;2022-11-12T01:36:59;7.50;99.90
53422;DHT22;39319;52.944;5.928;2022-11-12T01:39:25;7.50;99.90
53422;DHT22;39319;52.944;5.928;2022-11-12T01:41:51;7.50;99.90
53422;DHT22;39319;52.944;5.928;2022-11-12T01:44:20;7.40;99.90
53422;DHT22;39319;52.944;5.928;2022-11-12T01:47:19;7.40;99.90
53422;DHT22;39319;52.944;5.928;2022-11-12T01:49:53;7.40;99.90
53422;DHT22;39319;52.944;5.928;2022-11-12T01:54:57;7.40;99.90
53422;DHT22;39319;52.944;5.928;2022-11-12T01:57:30;7.40;99.90
53422;DHT22;39319;52.944;5.928;2022-11-12T02:00:01;7.40;99.90
53422;DHT22;39319;52.944;5.928;2022-11-12T02:02:29;7.30;99.90
53422;DHT22;39319;52.944;5.928;2022-11-12T02:04:55;7.30;99.90
53422;DHT22;39319;52.944;5.928;2022-11-12T02:07:22;7.40;99.90
53422;DHT22;39319;52.944;5.928;2022-11-12T02:09:49;7.40;99.90
53422;DHT22;39319;52.944;5.928;2022-11-12T02:12:15;7.30;99.90
53422;DHT22;39319;52.944;5.928;2022-11-12T02:15:01;7.30;99.90
53422;DHT22;39319;52.944;5.928;2022-11-12T02:17:27;7.30;99.90
53422;DHT22;39319;52.944;5.928;2022-11-12T02:20:00;7.30;99.90
53422;DHT22;39319;52.944;5.928;2022-11-12T02:22:26;7.30;99.90
53422;DHT22;39319;52.944;5.928;2022-11-12T02:24:52;7.30;99.90
53422;DHT22;39319;52.944;5.928;2022-11-12T02:27:18;7.30;99.90
53422;DHT22;39319;52.944;5.928;2022-11-12T02:29:44;7.30;99.90
53422;DHT22;39319;52.944;5.928;2022-11-12T02:32:13;7.30;99.90
53422;DHT22;39319;52.944;5.928;2022-11-12T02:34:39;7.20;99.90
53422;DHT22;39319;52.944;5.928;2022-11-12T02:37:06;7.20;99.90
53422;DHT22;39319;52.944;5.928;2022-11-12T02:39:32;7.20;99.90
53422;DHT22;39319;52.944;5.928;2022-11-12T02:41:57;7.20;99.90
53422;DHT22;39319;52.944;5.928;2022-11-12T02:44:23;7.20;99.90
53422;DHT22;39319;52.944;5.928;2022-11-12T02:46:49;7.20;99.90
53422;DHT22;39319;52.944;5.928;2022-11-12T02:49:15;7.20;99.90
53422;DHT22;39319;52.944;5.928;2022-11-12T02:51:41;7.20;99.90
53422;DHT22;39319;52.944;5.928;2022-11-12T02:54:07;7.20;99.90
53422;DHT22;39319;52.944;5.928;2022-11-12T02:56:33;7.20;99.90
53422;DHT22;39319;52.944;5.928;2022-11-12T02:59:00;7.20;99.90
53422;DHT22;39319;52.944;5.928;2022-11-12T03:01:26;7.20;99.90
53422;DHT22;39319;52.944;5.928;2022-11-12T03:03:51;7.20;99.90
53422;DHT22;39319;52.944;5.928;2022-11-12T03:06:17;7.20;99.90
53422;DHT22;39319;52.944;5.928;2022-11-12T03:08:43;7.40;99.90
53422;DHT22;39319;52.944;5.928;2022-11-12T03:11:11;7.20;99.90
53422;DHT22;39319;52.944;5.928;2022-11-12T03:13:37;7.30;99.90
53422;DHT22;39319;52.944;5.928;2022-11-12T03:16:04;7.30;99.90
53422;DHT22;39319;52.944;5.928;2022-11-12T03:18:30;7.30;99.90
53422;DHT22;39319;52.944;5.928;2022-11-12T03:20:56;7.30;99.90
53422;DHT22;39319;52.944;5.928;2022-11-12T03:23:22;7.30;99.90
53422;DHT22;39319;52.944;5.928;2022-11-12T03:25:48;7.40;99.90
53422;DHT22;39319;52.944;5.928;2022-11-12T03:28:14;7.40;99.90
53422;DHT22;39319;52.944;5.928;2022-11-12T03:30:42;7.40;99.90
53422;DHT22;39319;52.944;5.928;2022-11-12T03:33:10;7.50;99.90
53422;DHT22;39319;52.944;5.928;2022-11-12T03:35:36;7.50;99.90
53422;DHT22;39319;52.944;5.928;2022-11-12T03:38:03;7.60;99.90
53422;DHT22;39319;52.944;5.928;2022-11-12T03:40:29;7.60;99.90
53422;DHT22;39319;52.944;5.928;2022-11-12T03:42:55;7.60;99.90
53422;DHT22;39319;52.944;5.928;2022-11-12T03:45:23;7.70;99.90
53422;DHT22;39319;52.944;5.928;2022-11-12T03:47:52;7.70;99.90
53422;DHT22;39319;52.944;5.928;2022-11-12T03:50:20;7.80;99.90
53422;DHT22;39319;52.944;5.928;2022-11-12T03:52:50;7.80;99.90
53422;DHT22;39319;52.944;5.928;2022-11-12T03:55:18;7.90;99.90
53422;DHT22;39319;52.944;5.928;2022-11-12T03:57:44;7.90;99.90
53422;DHT22;39319;52.944;5.928;2022-11-12T04:00:11;7.90;99.90
53422;DHT22;39319;52.944;5.928;2022-11-12T04:02:37;8.00;99.90
53422;DHT22;39319;52.944;5.928;2022-11-12T04:05:05;8.00;99.90
53422;DHT22;39319;52.944;5.928;2022-11-12T04:07:58;8.00;99.90
53422;DHT22;39319;52.944;5.928;2022-11-12T04:10:43;8.10;99.90
53422;DHT22;39319;52.944;5.928;2022-11-12T04:13:09;8.10;99.90
53422;DHT22;39319;52.944;5.928;2022-11-12T04:16:05;8.10;99.90
53422;DHT22;39319;52.944;5.928;2022-11-12T04:18:51;8.10;99.90
53422;DHT22;39319;52.944;5.928;2022-11-12T04:24:30;8.20;99.90
53422;DHT22;39319;52.944;5.928;2022-11-12T04:27:20;8.20;99.90
53422;DHT22;39319;52.944;5.928;2022-11-12T04:29:47;8.20;99.90
53422;DHT22;39319;52.944;5.928;2022-11-12T04:32:34;8.40;99.90
53422;DHT22;39319;52.944;5.928;2022-11-12T04:35:00;7.30;99.90
53422;DHT22;39319;52.944;5.928;2022-11-12T04:37:28;8.30;99.90
53422;DHT22;39319;52.944;5.928;2022-11-12T04:42:53;8.30;99.90
53422;DHT22;39319;52.944;5.928;2022-11-12T04:45:39;8.30;99.90
53422;DHT22;39319;52.944;5.928;2022-11-12T04:48:06;8.30;99.90
53422;DHT22;39319;52.944;5.928;2022-11-12T04:50:31;8.30;99.90
53422;DHT22;39319;52.944;5.928;2022-11-12T04:52:57;8.30;99.90
53422;DHT22;39319;52.944;5.928;2022-11-12T04:55:23;8.40;99.90
53422;DHT22;39319;52.944;5.928;2022-11-12T04:57:50;8.40;99.90
53422;DHT22;39319;52.944;5.928;2022-11-12T05:00:16;8.40;99.90
53422;DHT22;39319;52.944;5.928;2022-11-12T05:02:42;8.40;99.90
53422;DHT22;39319;52.944;5.928;2022-11-12T05:05:07;8.40;99.90
53422;DHT22;39319;52.944;5.928;2022-11-12T05:07:33;8.40;99.90
53422;DHT22;39319;52.944;5.928;2022-11-12T05:09:59;8.40;99.90
53422;DHT22;39319;52.944;5.928;2022-11-12T05:12:25;8.40;99.90
53422;DHT22;39319;52.944;5.928;2022-11-12T05:14:51;8.40;99.90
53422;DHT22;39319;52.944;5.928;2022-11-12T05:17:17;8.50;99.90
53422;DHT22;39319;52.944;5.928;2022-11-12T05:19:43;8.60;99.90
53422;DHT22;39319;52.944;5.928;2022-11-12T05:22:12;8.50;99.90
53422;DHT22;39319;52.944;5.928;2022-11-12T05:24:39;8.50;99.90
53422;DHT22;39319;52.944;5.928;2022-11-12T05:27:10;8.50;99.90
53422;DHT22;39319;52.944;5.928;2022-11-12T05:29:36;8.50;99.90
53422;DHT22;39319;52.944;5.928;2022-11-12T05:32:03;8.50;99.90
53422;DHT22;39319;52.944;5.928;2022-11-12T05:34:29;8.50;99.90
53422;DHT22;39319;52.944;5.928;2022-11-12T05:36:56;8.50;99.90
53422;DHT22;39319;52.944;5.928;2022-11-12T05:39:21;8.50;99.90
53422;DHT22;39319;52.944;5.928;2022-11-12T05:41:47;8.50;99.90
53422;DHT22;39319;52.944;5.928;2022-11-12T05:44:14;8.50;99.90
53422;DHT22;39319;52.944;5.928;2022-11-12T05:46:39;8.50;99.90
53422;DHT22;39319;52.944;5.928;2022-11-12T05:49:05;8.60;99.90
53422;DHT22;39319;52.944;5.928;2022-11-12T05:51:31;8.60;99.90
53422;DHT22;39319;52.944;5.928;2022-11-12T05:53:57;8.50;99.90
53422;DHT22;39319;52.944;5.928;2022-11-12T05:56:23;8.60;99.90
53422;DHT22;39319;52.944;5.928;2022-11-12T05:58:49;8.60;99.90
53422;DHT22;39319;52.944;5.928;2022-11-12T06:01:15;8.60;99.90
53422;DHT22;39319;52.944;5.928;2022-11-12T06:03:41;8.60;99.90
53422;DHT22;39319;52.944;5.928;2022-11-12T06:06:07;8.60;99.90
53422;DHT22;39319;52.944;5.928;2022-11-12T06:08:33;8.60;99.90
53422;DHT22;39319;52.944;5.928;2022-11-12T06:10:58;8.60;99.90
53422;DHT22;39319;52.944;5.928;2022-11-12T06:13:25;8.60;99.90
53422;DHT22;39319;52.944;5.928;2022-11-12T06:15:52;8.60;99.90
53422;DHT22;39319;52.944;5.928;2022-11-12T06:18:19;8.60;99.90
53422;DHT22;39319;52.944;5.928;2022-11-12T06:20:45;8.60;99.90
53422;DHT22;39319;52.944;5.928;2022-11-12T06:23:31;8.70;99.90
53422;DHT22;39319;52.944;5.928;2022-11-12T06:25:56;8.60;99.90
53422;DHT22;39319;52.944;5.928;2022-11-12T06:28:23;8.60;99.90
53422;DHT22;39319;52.944;5.928;2022-11-12T06:30:48;8.60;99.90
53422;DHT22;39319;52.944;5.928;2022-11-12T06:33:14;8.60;99.90
53422;DHT22;39319;52.944;5.928;2022-11-12T06:35:40;8.70;99.90
53422;DHT22;39319;52.944;5.928;2022-11-12T06:38:05;8.70;99.90
53422;DHT22;39319;52.944;5.928;2022-11-12T06:40:32;8.70;99.90
53422;DHT22;39319;52.944;5.928;2022-11-12T06:42:58;8.70;99.90
53422;DHT22;39319;52.944;5.928;2022-11-12T06:45:24;8.70;99.90
53422;DHT22;39319;52.944;5.928;2022-11-12T06:47:50;8.70;99.90
53422;DHT22;39319;52.944;5.928;2022-11-12T06:50:18;8.70;99.90
53422;DHT22;39319;52.944;5.928;2022-11-12T06:52:44;8.70;99.90
53422;DHT22;39319;52.944;5.928;2022-11-12T06:55:10;9.00;99.90
53422;DHT22;39319;52.944;5.928;2022-11-12T06:57:35;8.70;99.90
53422;DHT22;39319;52.944;5.928;2022-11-12T07:00:01;8.70;99.90
53422;DHT22;39319;52.944;5.928;2022-11-12T07:02:27;8.90;99.90
53422;DHT22;39319;52.944;5.928;2022-11-12T07:04:54;8.70;99.90
53422;DHT22;39319;52.944;5.928;2022-11-12T07:07:19;8.70;99.90
53422;DHT22;39319;52.944;5.928;2022-11-12T07:09:45;8.80;99.90
53422;DHT22;39319;52.944;5.928;2022-11-12T07:12:11;8.80;99.90
53422;DHT22;39319;52.944;5.928;2022-11-12T07:14:37;8.80;99.90
53422;DHT22;39319;52.944;5.928;2022-11-12T07:17:03;8.80;99.90
53422;DHT22;39319;52.944;5.928;2022-11-12T07:19:28;8.80;99.90
53422;DHT22;39319;52.944;5.928;2022-11-12T07:21:54;8.80;99.90
53422;DHT22;39319;52.944;5.928;2022-11-12T07:24:20;8.80;99.90
53422;DHT22;39319;52.944;5.928;2022-11-12T07:26:45;8.80;99.90
53422;DHT22;39319;52.944;5.928;2022-11-12T07:29:11;8.90;99.90
53422;DHT22;39319;52.944;5.928;2022-11-12T07:31:37;8.80;99.90
53422;DHT22;39319;52.944;5.928;2022-11-12T07:34:02;8.90;99.90
53422;DHT22;39319;52.944;5.928;2022-11-12T07:36:29;8.90;99.90
53422;DHT22;39319;52.944;5.928;2022-11-12T07:38:55;8.90;99.90
53422;DHT22;39319;52.944;5.928;2022-11-12T07:41:22;9.00;99.90
53422;DHT22;39319;52.944;5.928;2022-11-12T07:43:50;9.00;99.90
53422;DHT22;39319;52.944;5.928;2022-11-12T07:46:24;9.00;99.90
53422;DHT22;39319;52.944;5.928;2022-11-12T07:48:51;9.00;99.90
53422;DHT22;39319;52.944;5.928;2022-11-12T07:51:25;8.90;99.90
53422;DHT22;39319;52.944;5.928;2022-11-12T07:53:56;9.00;99.90
53422;DHT22;39319;52.944;5.928;2022-11-12T07:56:23;9.00;99.90
53422;DHT22;39319;52.944;5.928;2022-11-12T07:58:50;9.00;99.90
53422;DHT22;39319;52.944;5.928;2022-11-12T08:01:24;9.10;99.90
53422;DHT22;39319;52.944;5.928;2022-11-12T08:03:53;9.10;99.90
53422;DHT22;39319;52.944;5.928;2022-11-12T08:06:22;9.10;99.90
53422;DHT22;39319;52.944;5.928;2022-11-12T08:08:51;9.10;99.90
53422;DHT22;39319;52.944;5.928;2022-11-12T08:11:17;9.00;99.90
53422;DHT22;39319;52.944;5.928;2022-11-12T08:13:43;9.10;99.90
53422;DHT22;39319;52.944;5.928;2022-11-12T08:16:09;9.10;99.90
53422;DHT22;39319;52.944;5.928;2022-11-12T08:18:34;9.10;99.90
53422;DHT22;39319;52.944;5.928;2022-11-12T08:21:01;9.10;99.90
53422;DHT22;39319;52.944;5.928;2022-11-12T08:23:28;9.10;99.90
53422;DHT22;39319;52.944;5.928;2022-11-12T08:25:58;9.10;99.90
53422;DHT22;39319;52.944;5.928;2022-11-12T08:28:31;9.20;99.90
53422;DHT22;39319;52.944;5.928;2022-11-12T08:31:14;9.20;99.90
53422;DHT22;39319;52.944;5.928;2022-11-12T08:33:41;9.20;99.90
53422;DHT22;39319;52.944;5.928;2022-11-12T08:36:09;9.20;99.90
53422;DHT22;39319;52.944;5.928;2022-11-12T08:38:35;9.20;99.90
53422;DHT22;39319;52.944;5.928;2022-11-12T08:41:02;9.30;99.90
53422;DHT22;39319;52.944;5.928;2022-11-12T08:43:29;9.30;99.90
53422;DHT22;39319;52.944;5.928;2022-11-12T08:45:57;9.30;99.90
53422;DHT22;39319;52.944;5.928;2022-11-12T08:48:23;9.30;99.90
53422;DHT22;39319;52.944;5.928;2022-11-12T08:50:49;9.40;99.90
53422;DHT22;39319;52.944;5.928;2022-11-12T08:53:14;9.40;99.90
53422;DHT22;39319;52.944;5.928;2022-11-12T08:55:40;9.40;99.90
53422;DHT22;39319;52.944;5.928;2022-11-12T08:58:06;9.40;99.90
53422;DHT22;39319;52.944;5.928;2022-11-12T09:00:35;9.40;99.90
53422;DHT22;39319;52.944;5.928;2022-11-12T09:03:03;9.50;99.90
53422;DHT22;39319;52.944;5.928;2022-11-12T09:05:29;9.50;99.90
53422;DHT22;39319;52.944;5.928;2022-11-12T09:08:06;9.50;99.90
53422;DHT22;39319;52.944;5.928;2022-11-12T09:10:32;9.50;99.90
53422;DHT22;39319;52.944;5.928;2022-11-12T09:12:58;9.60;99.90
53422;DHT22;39319;52.944;5.928;2022-11-12T09:15:25;9.50;99.90
53422;DHT22;39319;52.944;5.928;2022-11-12T09:17:58;9.60;99.90
53422;DHT22;39319;52.944;5.928;2022-11-12T09:20:25;9.60;99.90
53422;DHT22;39319;52.944;5.928;2022-11-12T09:22:51;9.60;99.90
53422;DHT22;39319;52.944;5.928;2022-11-12T09:25:18;9.60;99.90
53422;DHT22;39319;52.944;5.928;2022-11-12T09:27:46;9.60;99.90
53422;DHT22;39319;52.944;5.928;2022-11-12T09:30:12;9.60;99.90
53422;DHT22;39319;52.944;5.928;2022-11-12T09:32:37;9.60;99.90
53422;DHT22;39319;52.944;5.928;2022-11-12T09:35:04;9.70;99.90
53422;DHT22;39319;52.944;5.928;2022-11-12T09:37:31;9.60;99.90
53422;DHT22;39319;52.944;5.928;2022-11-12T09:39:57;9.60;99.90
53422;DHT22;39319;52.944;5.928;2022-11-12T09:42:23;9.60;99.90
53422;DHT22;39319;52.944;5.928;2022-11-12T09:45:06;9.60;99.90
53422;DHT22;39319;52.944;5.928;2022-11-12T09:47:45;9.60;99.90
53422;DHT22;39319;52.944;5.928;2022-11-12T09:50:19;9.60;99.90
53422;DHT22;39319;52.944;5.928;2022-11-12T09:53:00;9.70;99.90
53422;DHT22;39319;52.944;5.928;2022-11-12T09:55:39;9.70;99.90
53422;DHT22;39319;52.944;5.928;2022-11-12T09:58:13;9.70;99.90
53422;DHT22;39319;52.944;5.928;2022-11-12T10:00:54;9.60;99.90
53422;DHT22;39319;52.944;5.928;2022-11-12T10:06:20;9.70;99.90
53422;DHT22;39319;52.944;5.928;2022-11-12T10:09:02;9.70;99.90
53422;DHT22;39319;52.944;5.928;2022-11-12T10:18:02;9.80;99.90
53422;DHT22;39319;52.944;5.928;2022-11-12T10:20:41;9.70;99.90
53422;DHT22;39319;52.944;5.928;2022-11-12T10:23:21;9.70;99.90
53422;DHT22;39319;52.944;5.928;2022-11-12T10:25:50;9.70;99.90
53422;DHT22;39319;52.944;5.928;2022-11-12T10:28:25;9.70;99.90
53422;DHT22;39319;52.944;5.928;2022-11-12T10:31:00;9.80;99.90
53422;DHT22;39319;52.944;5.928;2022-11-12T10:33:30;9.70;99.90
53422;DHT22;39319;52.944;5.928;2022-11-12T10:36:16;9.70;99.90
53422;DHT22;39319;52.944;5.928;2022-11-12T10:38:44;9.70;99.90
53422;DHT22;39319;52.944;5.928;2022-11-12T10:44:12;9.70;99.90
53422;DHT22;39319;52.944;5.928;2022-11-12T10:46:39;9.80;99.90
53422;DHT22;39319;52.944;5.928;2022-11-12T10:51:40;9.80;99.90
53422;DHT22;39319;52.944;5.928;2022-11-12T10:54:19;9.80;99.90
53422;DHT22;39319;52.944;5.928;2022-11-12T10:56:46;9.80;99.90
53422;DHT22;39319;52.944;5.928;2022-11-12T10:59:19;9.80;99.90
53422;DHT22;39319;52.944;5.928;2022-11-12T11:01:53;9.80;99.90
53422;DHT22;39319;52.944;5.928;2022-11-12T11:04:28;9.80;99.90
53422;DHT22;39319;52.944;5.928;2022-11-12T11:07:21;9.80;99.90
53422;DHT22;39319;52.944;5.928;2022-11-12T11:09:59;9.80;99.90
53422;DHT22;39319;52.944;5.928;2022-11-12T11:12:28;9.80;99.90
53422;DHT22;39319;52.944;5.928;2022-11-12T11:15:17;9.80;99.90
53422;DHT22;39319;52.944;5.928;2022-11-12T11:17:43;9.80;99.90
53422;DHT22;39319;52.944;5.928;2022-11-12T11:20:23;9.80;99.90
53422;DHT22;39319;52.944;5.928;2022-11-12T11:25:44;9.90;99.90
53422;DHT22;39319;52.944;5.928;2022-11-12T11:28:22;10.00;99.90
53422;DHT22;39319;52.944;5.928;2022-11-12T11:31:03;10.00;99.90
53422;DHT22;39319;52.944;5.928;2022-11-12T11:33:45;10.10;99.90
53422;DHT22;39319;52.944;5.928;2022-11-12T11:50:09;10.10;99.90
53422;DHT22;39319;52.944;5.928;2022-11-12T11:52:54;10.30;99.90
53422;DHT22;39319;52.944;5.928;2022-11-12T11:55:35;10.40;99.90
53422;DHT22;39319;52.944;5.928;2022-11-12T12:01:00;10.60;99.90
53422;DHT22;39319;52.944;5.928;2022-11-12T12:11:41;12.20;99.90
53422;DHT22;39319;52.944;5.928;2022-11-12T12:14:40;12.30;99.90
53422;DHT22;39319;52.944;5.928;2022-11-12T12:17:22;12.30;99.90
53422;DHT22;39319;52.944;5.928;2022-11-12T12:20:04;12.60;99.90
53422;DHT22;39319;52.944;5.928;2022-11-12T12:22:39;12.90;99.90
53422;DHT22;39319;52.944;5.928;2022-11-12T12:25:20;13.30;99.90
53422;DHT22;39319;52.944;5.928;2022-11-12T12:27:58;13.70;99.90
53422;DHT22;39319;52.944;5.928;2022-11-12T12:30:24;14.00;99.90
53422;DHT22;39319;52.944;5.928;2022-11-12T12:35:51;14.50;99.90
53422;DHT22;39319;52.944;5.928;2022-11-12T12:38:44;14.70;99.90
53422;DHT22;39319;52.944;5.928;2022-11-12T12:41:24;14.90;99.90
53422;DHT22;39319;52.944;5.928;2022-11-12T12:44:03;15.10;99.60
53422;DHT22;39319;52.944;5.928;2022-11-12T12:46:37;15.30;99.10
53422;DHT22;39319;52.944;5.928;2022-11-12T12:49:06;15.50;98.90
53422;DHT22;39319;52.944;5.928;2022-11-12T12:51:34;15.60;98.60
53422;DHT22;39319;52.944;5.928;2022-11-12T12:54:00;15.70;98.50
53422;DHT22;39319;52.944;5.928;2022-11-12T12:58:55;15.80;98.20
53422;DHT22;39319;52.944;5.928;2022-11-12T13:06:28;15.90;98.00
53422;DHT22;39319;52.944;5.928;2022-11-12T13:09:02;15.90;97.90
53422;DHT22;39319;52.944;5.928;2022-11-12T13:38:09;16.80;96.80
53422;DHT22;39319;52.944;5.928;2022-11-12T13:51:34;15.60;98.30
53422;DHT22;39319;52.944;5.928;2022-11-12T13:54:32;15.40;98.30
53422;DHT22;39319;52.944;5.928;2022-11-12T13:57:29;15.40;98.30
53422;DHT22;39319;52.944;5.928;2022-11-12T14:02:52;15.40;98.50
53422;DHT22;39319;52.944;5.928;2022-11-12T14:05:31;15.30;98.90
53422;DHT22;39319;52.944;5.928;2022-11-12T14:13:51;14.70;99.40
53422;DHT22;39319;52.944;5.928;2022-11-12T14:16:40;14.50;99.60
53422;DHT22;39319;52.944;5.928;2022-11-12T14:19:29;14.40;99.80
53422;DHT22;39319;52.944;5.928;2022-11-12T14:22:14;14.30;99.90
53422;DHT22;39319;52.944;5.928;2022-11-12T14:24:41;14.20;99.90
53422;DHT22;39319;52.944;5.928;2022-11-12T14:27:32;14.10;99.90
53422;DHT22;39319;52.944;5.928;2022-11-12T14:32:43;13.90;99.90
53422;DHT22;39319;52.944;5.928;2022-11-12T14:35:32;13.80;99.90
53422;DHT22;39319;52.944;5.928;2022-11-12T14:38:20;13.70;99.90
53422;DHT22;39319;52.944;5.928;2022-11-12T14:40:53;13.60;99.90
53422;DHT22;39319;52.944;5.928;2022-11-12T14:43:37;13.50;99.90
53422;DHT22;39319;52.944;5.928;2022-11-12T14:46:05;13.50;99.90
53422;DHT22;39319;52.944;5.928;2022-11-12T14:48:36;13.50;99.90
53422;DHT22;39319;52.944;5.928;2022-11-12T14:51:07;13.40;99.90
53422;DHT22;39319;52.944;5.928;2022-11-12T14:53:38;13.30;99.90
53422;DHT22;39319;52.944;5.928;2022-11-12T14:56:07;13.30;99.90
53422;DHT22;39319;52.944;5.928;2022-11-12T14:58:33;13.30;99.90
53422;DHT22;39319;52.944;5.928;2022-11-12T15:01:23;13.20;99.90
53422;DHT22;39319;52.944;5.928;2022-11-12T15:03:49;13.20;99.90
53422;DHT22;39319;52.944;5.928;2022-11-12T15:06:28;13.20;99.90
53422;DHT22;39319;52.944;5.928;2022-11-12T15:08:56;13.10;99.90
53422;DHT22;39319;52.944;5.928;2022-11-12T15:11:27;13.00;99.90
53422;DHT22;39319;52.944;5.928;2022-11-12T15:13:56;13.00;99.90
53422;DHT22;39319;52.944;5.928;2022-11-12T15:16:35;13.00;99.90
53422;DHT22;39319;52.944;5.928;2022-11-12T15:19:05;12.90;99.90
53422;DHT22;39319;52.944;5.928;2022-11-12T15:21:33;12.90;99.90
53422;DHT22;39319;52.944;5.928;2022-11-12T15:29:23;12.70;99.90
53422;DHT22;39319;52.944;5.928;2022-11-12T15:37:24;12.60;99.90
53422;DHT22;39319;52.944;5.928;2022-11-12T15:39:54;12.60;99.90
53422;DHT22;39319;52.944;5.928;2022-11-12T15:42:27;12.50;99.90
53422;DHT22;39319;52.944;5.928;2022-11-12T15:45:03;12.50;99.90
53422;DHT22;39319;52.944;5.928;2022-11-12T15:47:29;12.40;99.90
53422;DHT22;39319;52.944;5.928;2022-11-12T15:49:58;12.30;99.90
53422;DHT22;39319;52.944;5.928;2022-11-12T15:52:25;12.30;99.90
53422;DHT22;39319;52.944;5.928;2022-11-12T15:54:51;12.20;99.90
53422;DHT22;39319;52.944;5.928;2022-11-12T15:57:24;12.10;99.90
53422;DHT22;39319;52.944;5.928;2022-11-12T16:00:12;12.10;99.90
53422;DHT22;39319;52.944;5.928;2022-11-12T16:02:38;12.00;99.90
53422;DHT22;39319;52.944;5.928;2022-11-12T16:05:10;12.00;99.90
53422;DHT22;39319;52.944;5.928;2022-11-12T16:07:36;11.90;99.90
53422;DHT22;39319;52.944;5.928;2022-11-12T16:10:02;11.90;99.90
53422;DHT22;39319;52.944;5.928;2022-11-12T16:12:28;11.90;99.90
53422;DHT22;39319;52.944;5.928;2022-11-12T16:14:54;11.80;99.90
53422;DHT22;39319;52.944;5.928;2022-11-12T16:17:20;11.70;99.90
53422;DHT22;39319;52.944;5.928;2022-11-12T16:19:46;11.70;99.90
53422;DHT22;39319;52.944;5.928;2022-11-12T16:22:12;11.60;99.90
53422;DHT22;39319;52.944;5.928;2022-11-12T16:24:41;11.60;99.90
53422;DHT22;39319;52.944;5.928;2022-11-12T16:27:16;11.50;99.90
53422;DHT22;39319;52.944;5.928;2022-11-12T16:29:42;11.50;99.90
53422;DHT22;39319;52.944;5.928;2022-11-12T16:32:12;11.40;99.90
53422;DHT22;39319;52.944;5.928;2022-11-12T16:34:38;11.30;99.90
53422;DHT22;39319;52.944;5.928;2022-11-12T16:37:04;11.30;99.90
53422;DHT22;39319;52.944;5.928;2022-11-12T16:39:30;11.20;99.90
53422;DHT22;39319;52.944;5.928;2022-11-12T16:41:57;11.20;99.90
53422;DHT22;39319;52.944;5.928;2022-11-12T16:44:23;11.20;99.90
53422;DHT22;39319;52.944;5.928;2022-11-12T16:46:48;11.20;99.90
53422;DHT22;39319;52.944;5.928;2022-11-12T16:49:14;11.10;99.90
53422;DHT22;39319;52.944;5.928;2022-11-12T16:51:41;11.10;99.90
53422;DHT22;39319;52.944;5.928;2022-11-12T16:54:07;11.10;99.90
53422;DHT22;39319;52.944;5.928;2022-11-12T16:56:33;11.00;99.90
53422;DHT22;39319;52.944;5.928;2022-11-12T16:59:00;11.00;99.90
53422;DHT22;39319;52.944;5.928;2022-11-12T17:01:28;11.00;99.90
53422;DHT22;39319;52.944;5.928;2022-11-12T17:03:55;10.90;99.90
53422;DHT22;39319;52.944;5.928;2022-11-12T17:06:33;10.90;99.90
53422;DHT22;39319;52.944;5.928;2022-11-12T17:08:59;10.80;99.90
53422;DHT22;39319;52.944;5.928;2022-11-12T17:11:25;10.80;99.90
53422;DHT22;39319;52.944;5.928;2022-11-12T17:13:53;10.80;99.90
53422;DHT22;39319;52.944;5.928;2022-11-12T17:16:19;10.70;99.90
53422;DHT22;39319;52.944;5.928;2022-11-12T17:18:45;10.70;99.90
53422;DHT22;39319;52.944;5.928;2022-11-12T17:21:17;10.70;99.90
53422;DHT22;39319;52.944;5.928;2022-11-12T17:23:43;10.60;99.90
53422;DHT22;39319;52.944;5.928;2022-11-12T17:26:14;10.60;99.90
53422;DHT22;39319;52.944;5.928;2022-11-12T17:28:40;10.60;99.90
53422;DHT22;39319;52.944;5.928;2022-11-12T17:31:08;10.50;99.90
53422;DHT22;39319;52.944;5.928;2022-11-12T17:33:48;10.50;99.90
53422;DHT22;39319;52.944;5.928;2022-11-12T17:36:17;10.50;99.90
53422;DHT22;39319;52.944;5.928;2022-11-12T17:38:43;10.50;99.90
53422;DHT22;39319;52.944;5.928;2022-11-12T17:41:10;10.50;99.90
53422;DHT22;39319;52.944;5.928;2022-11-12T17:43:37;10.50;99.90
53422;DHT22;39319;52.944;5.928;2022-11-12T17:46:04;10.40;99.90
53422;DHT22;39319;52.944;5.928;2022-11-12T17:48:32;10.40;99.90
53422;DHT22;39319;52.944;5.928;2022-11-12T17:51:11;10.40;99.90
53422;DHT22;39319;52.944;5.928;2022-11-12T17:53:38;10.30;99.90
53422;DHT22;39319;52.944;5.928;2022-11-12T17:56:05;10.30;99.90
53422;DHT22;39319;52.944;5.928;2022-11-12T17:58:32;10.30;99.90
53422;DHT22;39319;52.944;5.928;2022-11-12T18:03:41;10.30;99.90